Virtual Washington ARTCC

Weather

KBWI 260454Z 30014G24KT 10SM BKN055 06/M04 A2984 RMK AO2 PK WND 30029/0415 SLP103 T00611044 402390061
KDCA 260452Z 30012G24KT 10SM FEW050 FEW130 07/M06 A2986 RMK AO2 PK WND 32030/0355 SLP111 T00671056 402390067
KIAD 260452Z 30018G24KT 10SM BKN050 05/M06 A2986 RMK AO2 PK WND 31031/0410 SLP111 T00501061 402500050
KORF 260451Z VRB03KT 10SM BKN100 12/07 A2980 RMK AO2 SLP089 T01220067 402720111
KRDU 260451Z 31009G19KT 10SM CLR 11/M07 A2989 RMK AO2 SLP119 T01111067 402720111

Events



No Events on the scope. Click to learn more about the ZDC events department. Details


ZDC Activity

No controllers online.

News



The information contained on all pages of this website is to be used for flight simulation purposes only on the VATSIM network. It is not intended nor should it be used for real world navigation.This site is not affiliated with the FAA, the actual Washington Center or any governing aviation body. All content contained herein is approved only for use on the VATSIM network. ©2016 Virtual Washington ARTCC -- Source Code © 2016-2017 W. Guisbond and R. Rump.